createdAt,value
2023-05-16T00:00:41.793Z,23.52
2023-05-16T00:03:10.516Z,24.50
2023-05-16T00:05:37.902Z,25.35
2023-05-16T00:08:05.497Z,27.70
2023-05-16T00:10:32.506Z,25.60
2023-05-16T00:13:01.962Z,24.02
2023-05-16T00:15:30.141Z,22.10
2023-05-16T00:18:00.312Z,20.67
2023-05-16T00:20:28.707Z,21.75
2023-05-16T00:22:56.169Z,23.25
2023-05-16T00:25:23.787Z,22.85
2023-05-16T00:27:50.682Z,25.25
2023-05-16T00:30:17.655Z,24.40
2023-05-16T00:32:44.642Z,26.92
2023-05-16T00:35:12.357Z,25.20
2023-05-16T00:37:39.513Z,30.92
2023-05-16T00:40:07.606Z,32.47
2023-05-16T00:42:34.559Z,38.13
2023-05-16T00:45:01.473Z,37.10
2023-05-16T00:47:28.461Z,38.70
2023-05-16T00:49:55.541Z,43.17
2023-05-16T00:52:23.261Z,42.15
2023-05-16T00:54:51.960Z,39.35
2023-05-16T00:57:19.422Z,39.80
2023-05-16T00:59:47.704Z,38.55
2023-05-16T01:02:14.964Z,34.22
2023-05-16T01:04:44.488Z,34.75
2023-05-16T01:07:12.082Z,33.35
2023-05-16T01:09:39.120Z,30.17
2023-05-16T01:12:35.687Z,33.08
2023-05-16T01:15:14.167Z,31.70
2023-05-16T01:18:29.176Z,30.80
2023-05-16T01:20:59.658Z,26.13
2023-05-16T01:24:07.855Z,30.10
2023-05-16T01:26:36.396Z,29.90
2023-05-16T01:29:04.182Z,27.05
2023-05-16T01:31:31.120Z,24.38
2023-05-16T01:33:58.000Z,24.98
2023-05-16T01:36:37.077Z,20.02
2023-05-16T01:39:41.172Z,15.10
2023-05-16T01:42:11.009Z,11.45
2023-05-16T01:45:06.165Z,8.80
2023-05-16T01:47:38.381Z,6.30
2023-05-16T01:50:17.748Z,4.78
2023-05-16T01:52:58.715Z,4.22
2023-05-16T01:55:47.779Z,3.78
2023-05-16T01:58:17.312Z,2.75
2023-05-16T02:00:44.821Z,1.65
2023-05-16T02:03:12.063Z,1.73
2023-05-16T02:05:39.787Z,1.90
2023-05-16T02:08:07.007Z,1.67
2023-05-16T02:10:33.843Z,2.40
2023-05-16T02:13:00.788Z,1.70
2023-05-16T02:15:28.137Z,2.05
2023-05-16T02:17:55.856Z,2.42
2023-05-16T02:20:22.722Z,1.92
2023-05-16T02:22:50.104Z,1.88
2023-05-16T02:25:17.198Z,2.95
2023-05-16T02:27:44.137Z,2.00
2023-05-16T02:30:14.469Z,2.05
2023-05-16T02:32:44.951Z,2.90
2023-05-16T02:35:12.449Z,2.85
2023-05-16T02:37:42.623Z,2.03
2023-05-16T02:40:10.527Z,2.00
2023-05-16T02:42:37.387Z,2.10
2023-05-16T02:45:04.876Z,3.08
2023-05-16T02:47:32.050Z,3.90
2023-05-16T02:49:59.040Z,2.25
2023-05-16T02:52:26.216Z,2.58
2023-05-16T02:55:04.767Z,2.35
2023-05-16T02:57:36.628Z,2.55
2023-05-16T03:00:05.976Z,2.55
2023-05-16T03:02:33.123Z,3.95
2023-05-16T03:05:00.074Z,4.00
2023-05-16T03:07:27.034Z,3.45
2023-05-16T03:09:54.002Z,4.60
2023-05-16T03:12:20.890Z,3.42
2023-05-16T03:14:47.739Z,3.30
2023-05-16T03:17:14.618Z,5.07
2023-05-16T03:19:41.542Z,3.42
2023-05-16T03:22:08.478Z,3.00
2023-05-16T03:24:35.489Z,4.40
2023-05-16T03:27:04.555Z,3.85
2023-05-16T03:29:31.562Z,3.30
2023-05-16T03:31:58.398Z,2.92
2023-05-16T03:34:25.475Z,3.22
2023-05-16T03:36:52.583Z,4.43
2023-05-16T03:39:19.953Z,2.78
2023-05-16T03:41:46.901Z,2.13
2023-05-16T03:44:13.768Z,2.45
2023-05-16T03:46:40.663Z,2.92
2023-05-16T03:49:07.532Z,4.63
2023-05-16T03:51:34.405Z,2.90
2023-05-16T03:54:01.269Z,2.55
2023-05-16T03:56:28.150Z,2.45
2023-05-16T03:58:54.970Z,1.80
2023-05-16T04:01:22.578Z,3.55
2023-05-16T04:03:50.812Z,1.85
2023-05-16T04:06:18.088Z,1.55
2023-05-16T04:08:45.149Z,2.10
2023-05-16T04:11:12.213Z,1.42
2023-05-16T04:13:39.239Z,1.40
2023-05-16T04:16:07.347Z,0.82
2023-05-16T04:18:34.485Z,1.02
2023-05-16T04:21:01.699Z,0.60
2023-05-16T04:23:28.560Z,0.63
2023-05-16T04:25:56.936Z,0.50
2023-05-16T04:28:23.792Z,0.47
2023-05-16T04:30:51.352Z,0.65
2023-05-16T04:33:18.744Z,0.45
2023-05-16T04:35:45.648Z,1.17
2023-05-16T04:38:12.560Z,0.60
2023-05-16T04:40:41.740Z,2.75
2023-05-16T04:43:08.698Z,1.15
2023-05-16T04:45:37.686Z,1.73
2023-05-16T04:48:05.164Z,3.33
2023-05-16T04:50:32.169Z,1.50
2023-05-16T04:52:59.083Z,3.90
2023-05-16T04:55:26.102Z,1.97
2023-05-16T04:57:53.178Z,3.00
2023-05-16T05:00:20.652Z,2.80
2023-05-16T05:02:47.635Z,2.73
2023-05-16T05:05:14.509Z,2.80
2023-05-16T05:07:41.606Z,1.80
2023-05-16T05:10:09.344Z,3.40
2023-05-16T05:12:36.421Z,2.47
2023-05-16T05:15:04.779Z,1.80
2023-05-16T05:17:31.756Z,3.93
2023-05-16T05:20:00.028Z,4.37
2023-05-16T05:22:28.723Z,4.03
2023-05-16T05:24:55.882Z,4.67
2023-05-16T05:27:22.786Z,3.67
2023-05-16T05:29:49.620Z,5.47
2023-05-16T05:32:16.520Z,5.60
2023-05-16T05:34:43.586Z,8.33
2023-05-16T05:37:10.511Z,5.53
2023-05-16T05:39:37.527Z,5.33
2023-05-16T05:42:04.586Z,8.50
2023-05-16T05:44:31.651Z,5.50
2023-05-16T05:46:59.158Z,5.60
2023-05-16T05:49:27.244Z,7.47
2023-05-16T05:51:54.535Z,7.40
2023-05-16T05:54:21.705Z,10.27
2023-05-16T05:56:48.591Z,10.43
2023-05-16T05:59:15.515Z,7.63
2023-05-16T06:01:46.874Z,6.53
2023-05-16T06:04:13.765Z,8.17
2023-05-16T06:06:43.644Z,8.83
2023-05-16T06:09:10.887Z,9.20
2023-05-16T06:11:37.712Z,10.23
2023-05-16T06:14:05.303Z,15.93
2023-05-16T06:16:32.201Z,10.07
2023-05-16T06:18:59.092Z,13.57
2023-05-16T06:21:26.181Z,9.10
2023-05-16T06:23:53.185Z,11.70
2023-05-16T06:26:20.373Z,11.17
2023-05-16T06:28:47.259Z,15.10
2023-05-16T06:31:14.146Z,10.60
2023-05-16T06:33:41.549Z,11.27
2023-05-16T06:36:08.580Z,10.17
2023-05-16T06:38:35.459Z,10.47
2023-05-16T06:41:02.376Z,12.77
2023-05-16T06:43:29.288Z,10.23
2023-05-16T06:45:56.597Z,9.03
2023-05-16T06:48:23.641Z,9.20
2023-05-16T06:50:52.140Z,8.27
2023-05-16T06:53:19.749Z,9.17
2023-05-16T06:55:47.864Z,10.10
2023-05-16T06:58:15.185Z,13.80
2023-05-16T07:00:42.260Z,9.20
2023-05-16T07:03:09.443Z,12.53
2023-05-16T07:05:36.468Z,10.60
2023-05-16T07:08:05.065Z,9.70
2023-05-16T07:10:33.312Z,14.77
2023-05-16T07:13:01.652Z,9.32
2023-05-16T07:15:28.861Z,16.40
2023-05-16T07:17:56.106Z,10.18
2023-05-16T07:20:23.647Z,6.25
2023-05-16T07:22:50.682Z,10.93
2023-05-16T07:25:20.760Z,13.13
2023-05-16T07:27:47.669Z,7.03
2023-05-16T07:30:14.917Z,10.10
2023-05-16T07:32:43.357Z,6.43
2023-05-16T07:35:10.933Z,5.53
2023-05-16T07:37:37.906Z,10.35
2023-05-16T07:40:05.791Z,6.35
2023-05-16T07:42:32.860Z,7.43
2023-05-16T07:44:59.778Z,6.22
2023-05-16T07:47:27.090Z,4.90
2023-05-16T07:49:54.186Z,5.68
2023-05-16T07:52:21.255Z,5.60
2023-05-16T07:54:48.342Z,9.18
2023-05-16T07:57:15.962Z,6.85
2023-05-16T07:59:44.345Z,7.55
2023-05-16T08:02:11.967Z,7.63
2023-05-16T08:04:39.034Z,8.77
2023-05-16T08:07:06.152Z,7.70
2023-05-16T08:09:33.318Z,8.45
2023-05-16T08:12:03.638Z,4.93
2023-05-16T08:14:32.964Z,6.70
2023-05-16T08:17:00.663Z,6.25
2023-05-16T08:19:28.072Z,7.38
2023-05-16T08:21:55.383Z,7.75
2023-05-16T08:24:22.362Z,4.20
2023-05-16T08:26:49.366Z,8.98
2023-05-16T08:29:16.872Z,5.97
2023-05-16T08:31:43.967Z,6.43
2023-05-16T08:34:10.999Z,5.90
2023-05-16T08:36:39.018Z,3.65
2023-05-16T08:39:06.193Z,4.45
2023-05-16T08:41:33.552Z,4.05
2023-05-16T08:44:00.752Z,5.93
2023-05-16T08:46:30.019Z,3.35
2023-05-16T08:49:01.255Z,4.63
2023-05-16T08:51:36.627Z,4.95
2023-05-16T08:54:09.583Z,6.13
2023-05-16T08:56:38.068Z,4.88
2023-05-16T08:59:05.133Z,7.50
2023-05-16T09:01:32.605Z,6.45
2023-05-16T09:04:01.196Z,4.07
2023-05-16T09:06:28.507Z,4.90
2023-05-16T09:08:56.408Z,5.22
2023-05-16T09:11:23.890Z,4.07
2023-05-16T09:13:51.247Z,5.47
2023-05-16T09:16:21.693Z,4.22
2023-05-16T09:19:07.072Z,5.00
2023-05-16T09:21:35.954Z,6.57
2023-05-16T09:24:09.980Z,4.22
2023-05-16T09:26:39.689Z,16.98
2023-05-16T09:29:13.973Z,7.03
2023-05-16T09:31:43.879Z,4.82
2023-05-16T09:34:11.995Z,4.55
2023-05-16T09:36:41.013Z,4.05
2023-05-16T09:39:09.126Z,5.60
2023-05-16T09:41:36.576Z,5.20
2023-05-16T09:44:07.257Z,4.15
2023-05-16T09:46:38.874Z,4.85
2023-05-16T09:49:06.349Z,3.50
2023-05-16T09:51:34.595Z,6.05
2023-05-16T09:54:01.594Z,5.20
2023-05-16T09:56:30.101Z,5.00
2023-05-16T09:58:57.068Z,7.65
2023-05-16T10:01:25.280Z,4.93
2023-05-16T10:03:52.800Z,5.07
2023-05-16T10:06:20.559Z,6.50
2023-05-16T10:08:49.207Z,5.70
2023-05-16T10:11:18.407Z,3.80
2023-05-16T10:13:50.455Z,6.32
2023-05-16T10:16:18.952Z,5.47
2023-05-16T10:18:46.213Z,6.95
2023-05-16T10:21:19.608Z,6.03
2023-05-16T10:23:51.658Z,8.43
2023-05-16T10:26:21.413Z,5.95
2023-05-16T10:28:49.359Z,4.80
2023-05-16T10:31:16.863Z,6.47
2023-05-16T10:33:44.308Z,6.78
2023-05-16T10:36:13.066Z,4.32
2023-05-16T10:38:41.658Z,3.20
2023-05-16T10:41:10.209Z,5.32
2023-05-16T10:43:37.237Z,7.35
2023-05-16T10:46:11.628Z,4.75
2023-05-16T10:48:41.311Z,5.43
2023-05-16T10:51:23.479Z,5.65
2023-05-16T10:54:10.894Z,3.30
2023-05-16T10:56:38.400Z,6.38
2023-05-16T10:59:24.115Z,6.35
2023-05-16T11:01:56.884Z,3.50
2023-05-16T11:04:24.265Z,5.40
2023-05-16T11:06:53.618Z,7.30
2023-05-16T11:09:27.481Z,6.78
2023-05-16T11:12:03.808Z,5.07
2023-05-16T11:14:39.268Z,3.80
2023-05-16T11:17:21.749Z,5.60
2023-05-16T11:19:53.034Z,3.00
2023-05-16T11:22:20.008Z,4.97
2023-05-16T11:24:54.140Z,3.40
2023-05-16T11:27:25.422Z,3.35
2023-05-16T11:29:54.985Z,2.97
2023-05-16T11:32:23.916Z,3.90
2023-05-16T11:34:52.530Z,4.38
2023-05-16T11:37:20.951Z,2.90
2023-05-16T11:39:48.122Z,3.33
2023-05-16T11:42:15.398Z,3.50
2023-05-16T11:44:42.408Z,3.83
2023-05-16T11:47:09.676Z,5.65
2023-05-16T11:49:36.977Z,3.70
2023-05-16T11:52:05.060Z,4.35
2023-05-16T11:54:32.476Z,4.28
2023-05-16T11:56:59.767Z,6.93
2023-05-16T11:59:27.125Z,3.72
2023-05-16T12:01:54.075Z,5.75
2023-05-16T12:04:21.250Z,2.85
2023-05-16T12:07:01.046Z,4.20
2023-05-16T12:09:28.256Z,1.35
2023-05-16T12:11:55.310Z,3.05
2023-05-16T12:14:23.284Z,2.60
2023-05-16T12:16:52.784Z,3.65
2023-05-16T12:19:20.786Z,5.38
2023-05-16T12:21:48.034Z,2.97
2023-05-16T12:24:15.039Z,2.72
2023-05-16T12:26:42.836Z,5.15
2023-05-16T12:29:11.720Z,4.20
2023-05-16T12:31:42.471Z,3.65
2023-05-16T12:34:18.229Z,4.57
2023-05-16T12:36:45.185Z,4.55
2023-05-16T12:39:14.098Z,5.30
2023-05-16T12:41:43.370Z,2.35
2023-05-16T12:44:19.835Z,2.40
2023-05-16T12:46:51.579Z,2.13
2023-05-16T12:49:24.972Z,2.42
2023-05-16T12:51:55.522Z,2.30
2023-05-16T12:54:23.250Z,3.67
2023-05-16T12:56:50.328Z,3.60
2023-05-16T12:59:17.439Z,2.88
2023-05-16T13:01:46.363Z,0.95
2023-05-16T13:04:18.430Z,3.60
2023-05-16T13:06:57.476Z,1.45
2023-05-16T13:09:25.224Z,1.38
2023-05-16T13:11:52.529Z,3.42
2023-05-16T13:14:19.479Z,3.67
2023-05-16T13:16:46.725Z,2.10
2023-05-16T13:19:13.920Z,2.05
2023-05-16T13:21:40.986Z,2.00
2023-05-16T13:24:08.007Z,5.85
2023-05-16T13:26:35.270Z,4.55
2023-05-16T13:29:02.440Z,3.83
2023-05-16T13:31:29.592Z,4.75
2023-05-16T13:33:56.818Z,1.75
2023-05-16T13:36:23.737Z,4.35
2023-05-16T13:38:50.782Z,1.60
2023-05-16T13:41:17.737Z,3.90
2023-05-16T13:43:44.652Z,6.05
2023-05-16T13:46:11.648Z,2.50
2023-05-16T13:48:38.611Z,5.18
2023-05-16T13:51:05.580Z,2.28
2023-05-16T13:53:32.532Z,3.50
2023-05-16T13:55:59.465Z,2.95
2023-05-16T13:58:27.239Z,4.68
2023-05-16T14:00:54.387Z,3.15
2023-05-16T14:03:22.850Z,4.28
2023-05-16T14:05:49.811Z,2.45
2023-05-16T14:08:16.761Z,4.93
2023-05-16T14:10:43.834Z,4.35
2023-05-16T14:13:10.733Z,3.25
2023-05-16T14:15:37.615Z,4.85
2023-05-16T14:18:05.030Z,3.22
2023-05-16T14:20:32.226Z,3.33
2023-05-16T14:22:59.399Z,4.93
2023-05-16T14:25:26.690Z,2.50
2023-05-16T14:27:53.853Z,3.60
2023-05-16T14:30:20.908Z,3.28
2023-05-16T14:32:48.015Z,5.03
2023-05-16T14:35:14.958Z,4.95
2023-05-16T14:37:41.889Z,3.10
2023-05-16T14:40:10.128Z,2.00
2023-05-16T14:42:37.102Z,3.10
2023-05-16T14:45:04.330Z,2.63
2023-05-16T14:47:31.727Z,3.25
2023-05-16T14:49:58.704Z,3.28
2023-05-16T14:52:25.748Z,2.70
2023-05-16T14:54:52.815Z,3.90
2023-05-16T14:57:19.709Z,2.03
2023-05-16T14:59:48.715Z,2.33
2023-05-16T15:02:16.053Z,1.92
2023-05-16T15:04:43.055Z,2.83
2023-05-16T15:07:10.030Z,3.40
2023-05-16T15:09:37.035Z,1.48
2023-05-16T15:12:05.782Z,4.63
2023-05-16T15:14:32.833Z,2.25
2023-05-16T15:16:59.809Z,1.45
2023-05-16T15:19:26.926Z,3.70
2023-05-16T15:21:54.004Z,3.17
2023-05-16T15:24:21.301Z,2.80
2023-05-16T15:26:54.398Z,3.05
2023-05-16T15:29:21.304Z,3.97
2023-05-16T15:31:48.248Z,3.70
2023-05-16T15:34:15.282Z,4.30
2023-05-16T15:36:42.221Z,4.10
2023-05-16T15:39:09.165Z,1.65
2023-05-16T15:42:00.667Z,2.80
2023-05-16T15:44:23.078Z,2.80
2023-05-16T15:46:50.167Z,2.15
2023-05-16T15:49:17.116Z,3.33
2023-05-16T15:51:44.056Z,2.42
2023-05-16T15:54:11.568Z,2.13
2023-05-16T15:56:38.465Z,5.00
2023-05-16T15:59:05.551Z,2.58
2023-05-16T16:01:32.626Z,4.13
2023-05-16T16:03:59.791Z,5.60
2023-05-16T16:06:26.910Z,2.25
2023-05-16T16:08:53.934Z,2.60
2023-05-16T16:11:25.069Z,4.45
2023-05-16T16:13:52.054Z,4.55
2023-05-16T16:16:19.118Z,3.20
2023-05-16T16:18:46.218Z,3.88
2023-05-16T16:21:13.330Z,2.72
2023-05-16T16:23:40.601Z,2.30
2023-05-16T16:26:07.840Z,4.47
2023-05-16T16:28:34.747Z,2.15
2023-05-16T16:31:01.800Z,6.10
2023-05-16T16:33:28.743Z,3.10
2023-05-16T16:35:55.716Z,1.98
2023-05-16T16:38:22.634Z,2.55
2023-05-16T16:40:49.891Z,7.57
2023-05-16T16:43:16.877Z,2.58
2023-05-16T16:45:44.116Z,4.18
2023-05-16T16:48:11.652Z,1.98
2023-05-16T16:50:38.603Z,4.55
2023-05-16T16:53:05.559Z,3.83
2023-05-16T16:55:32.439Z,5.93
2023-05-16T16:57:59.378Z,4.22
2023-05-16T17:00:26.443Z,2.78
2023-05-16T17:02:53.779Z,2.72
2023-05-16T17:05:20.822Z,1.60
2023-05-16T17:07:47.765Z,4.13
2023-05-16T17:10:14.675Z,4.10
2023-05-16T17:12:48.911Z,3.13
2023-05-16T17:15:17.636Z,5.15
2023-05-16T17:17:46.731Z,3.88
2023-05-16T17:20:13.793Z,2.85
2023-05-16T17:22:41.064Z,3.30
2023-05-16T17:25:08.520Z,4.88
2023-05-16T17:27:35.452Z,3.20
2023-05-16T17:30:02.322Z,5.28
2023-05-16T17:32:29.265Z,5.20
2023-05-16T17:34:56.341Z,5.35
2023-05-16T17:37:23.260Z,4.60
2023-05-16T17:39:52.859Z,5.35
2023-05-16T17:42:19.770Z,4.22
2023-05-16T17:44:46.845Z,3.95
2023-05-16T17:47:13.848Z,3.88
2023-05-16T17:49:41.537Z,3.20
2023-05-16T17:52:08.982Z,3.30
2023-05-16T17:54:36.540Z,5.22
2023-05-16T17:57:04.234Z,5.90
2023-05-16T17:59:31.155Z,6.38
2023-05-16T18:01:58.097Z,5.25
2023-05-16T18:04:26.453Z,4.47
2023-05-16T18:06:53.460Z,5.25
2023-05-16T18:09:21.224Z,3.80
2023-05-16T18:11:49.007Z,4.40
2023-05-16T18:14:17.175Z,4.20
2023-05-16T18:16:44.563Z,4.88
2023-05-16T18:19:11.674Z,6.25
2023-05-16T18:21:40.005Z,5.95
2023-05-16T18:24:08.494Z,5.53
2023-05-16T18:26:36.782Z,4.45
2023-05-16T18:29:03.864Z,5.25
2023-05-16T18:31:33.548Z,5.70
2023-05-16T18:34:03.676Z,5.32
2023-05-16T18:36:31.663Z,2.25
2023-05-16T18:38:58.656Z,4.32
2023-05-16T18:41:26.104Z,5.38
2023-05-16T18:43:53.223Z,4.63
2023-05-16T18:46:20.206Z,3.45
2023-05-16T18:48:47.168Z,4.47
2023-05-16T18:51:14.053Z,3.45
2023-05-16T18:53:40.968Z,4.82
2023-05-16T18:56:07.949Z,3.97
2023-05-16T18:58:34.866Z,4.18
2023-05-16T19:01:01.973Z,3.10
2023-05-16T19:03:28.961Z,4.75
2023-05-16T19:05:56.068Z,6.10
2023-05-16T19:08:27.173Z,5.35
2023-05-16T19:10:58.359Z,7.07
2023-05-16T19:13:25.200Z,5.75
2023-05-16T19:15:53.369Z,4.50
2023-05-16T19:18:20.480Z,6.18
2023-05-16T19:20:47.518Z,6.82
2023-05-16T19:23:14.500Z,6.18
2023-05-16T19:25:47.239Z,6.30
2023-05-16T19:28:14.914Z,4.80
2023-05-16T19:30:42.893Z,6.32
2023-05-16T19:33:10.576Z,5.32
2023-05-16T19:35:38.571Z,4.18
2023-05-16T19:38:05.738Z,5.15
2023-05-16T19:40:35.777Z,5.10
2023-05-16T19:43:02.706Z,5.90
2023-05-16T19:45:29.909Z,5.43
2023-05-16T19:47:57.054Z,6.22
2023-05-16T19:50:24.047Z,9.60
2023-05-16T19:52:51.158Z,5.10
2023-05-16T19:55:18.129Z,5.82
2023-05-16T19:57:45.192Z,6.40
2023-05-16T20:00:13.134Z,4.22
2023-05-16T20:02:40.530Z,5.13
2023-05-16T20:05:08.268Z,4.82
2023-05-16T20:07:35.392Z,4.97
2023-05-16T20:10:02.382Z,6.38
2023-05-16T20:12:29.341Z,5.53
2023-05-16T20:14:56.332Z,7.95
2023-05-16T20:17:23.209Z,8.32
2023-05-16T20:19:50.358Z,5.10
2023-05-16T20:22:19.103Z,8.13
2023-05-16T20:24:46.110Z,5.10
2023-05-16T20:27:13.090Z,7.60
2023-05-16T20:29:40.515Z,6.63
2023-05-16T20:32:07.595Z,8.40
2023-05-16T20:34:34.635Z,9.40
2023-05-16T20:37:01.709Z,5.75
2023-05-16T20:39:29.085Z,4.63
2023-05-16T20:41:56.148Z,6.75
2023-05-16T20:44:23.131Z,9.90
2023-05-16T20:46:50.308Z,6.93
2023-05-16T20:49:17.296Z,6.28
2023-05-16T20:51:44.292Z,8.73
2023-05-16T20:54:12.853Z,4.55
2023-05-16T20:56:39.784Z,9.95
2023-05-16T20:59:06.716Z,5.82
2023-05-16T21:01:33.686Z,6.85
2023-05-16T21:04:01.731Z,6.53
2023-05-16T21:06:29.005Z,9.75
2023-05-16T21:08:56.048Z,6.40
2023-05-16T21:11:23.262Z,9.32
2023-05-16T21:13:50.516Z,6.93
2023-05-16T21:16:17.397Z,6.18
2023-05-16T21:18:44.700Z,5.65
2023-05-16T21:21:11.806Z,6.82
2023-05-16T21:23:39.358Z,8.32
2023-05-16T21:26:06.455Z,6.55
2023-05-16T21:28:36.930Z,9.68
2023-05-16T21:31:08.076Z,8.63
2023-05-16T21:33:35.106Z,7.85
2023-05-16T21:36:02.126Z,5.43
2023-05-16T21:38:29.056Z,7.82
2023-05-16T21:40:57.807Z,6.22
2023-05-16T21:43:24.749Z,6.30
2023-05-16T21:45:51.671Z,9.63
2023-05-16T21:48:18.678Z,5.07
2023-05-16T21:50:45.697Z,7.72
2023-05-16T21:53:12.686Z,6.75
2023-05-16T21:55:39.590Z,6.63
2023-05-16T21:58:06.464Z,5.55
2023-05-16T22:00:33.310Z,7.53
2023-05-16T22:03:00.268Z,4.55
2023-05-16T22:05:27.501Z,4.95
2023-05-16T22:07:54.583Z,5.85
2023-05-16T22:10:21.578Z,5.75
2023-05-16T22:12:48.451Z,5.43
2023-05-16T22:15:15.495Z,5.85
2023-05-16T22:17:42.490Z,7.68
2023-05-16T22:20:10.264Z,8.20
2023-05-16T22:22:37.144Z,6.03
2023-05-16T22:25:05.220Z,3.97
2023-05-16T22:27:32.217Z,5.30
2023-05-16T22:29:59.153Z,5.03
2023-05-16T22:32:26.162Z,5.13
2023-05-16T22:34:53.948Z,7.68
2023-05-16T22:37:20.813Z,6.32
2023-05-16T22:39:47.706Z,8.85
2023-05-16T22:42:14.604Z,11.07
2023-05-16T22:44:41.533Z,6.63
2023-05-16T22:47:08.434Z,4.95
2023-05-16T22:49:35.467Z,5.68
2023-05-16T22:52:02.422Z,3.90
2023-05-16T22:54:29.322Z,7.68
2023-05-16T22:56:56.404Z,5.68
2023-05-16T22:59:23.296Z,6.43
2023-05-16T23:01:50.491Z,6.83
2023-05-16T23:04:17.367Z,6.28
2023-05-16T23:06:44.333Z,5.60
2023-05-16T23:09:11.215Z,5.60
2023-05-16T23:11:38.061Z,5.78
2023-05-16T23:14:04.991Z,6.25
2023-05-16T23:16:31.851Z,7.60
2023-05-16T23:18:58.799Z,4.27
2023-05-16T23:21:25.741Z,8.50
2023-05-16T23:23:52.634Z,6.03
2023-05-16T23:26:19.559Z,6.90
2023-05-16T23:28:46.477Z,8.77
2023-05-16T23:31:13.357Z,6.35
2023-05-16T23:33:40.373Z,5.53
2023-05-16T23:36:07.585Z,8.43
2023-05-16T23:38:36.834Z,4.53
2023-05-16T23:41:03.751Z,5.50
2023-05-16T23:43:30.742Z,8.53
2023-05-16T23:45:57.646Z,4.37
2023-05-16T23:48:24.656Z,4.83
2023-05-16T23:50:51.724Z,6.27
2023-05-16T23:53:18.687Z,4.63
2023-05-16T23:55:46.073Z,7.33
2023-05-16T23:58:12.901Z,7.03
